Time;durP1;ratioP1;P1;durP2;ratioP2;P2;SDS_P1;SDS_P2;PMS_P1;PMS_P2;Temp;Humidity;BMP_temperature;BMP_pressure;BME280_temperature;BME280_humidity;BME280_pressure;Samples;Min_cycle;Max_cycle;Signal;HPM_P1;HPM_P2
2023/10/02 00:01:53;;;;;;;24.88;11.73;;;19.90;55.70;;;;;;5052692;28;20068;-40
2023/10/02 00:04:23;;;;;;;25.23;12.13;;;19.90;55.70;;;;;;5054293;28;20396;-41
2023/10/02 00:07:05;;;;;;;26.25;10.55;;;19.90;55.70;;;;;;5055215;28;20524;-40
2023/10/02 00:09:35;;;;;;;25.48;10.98;;;19.80;55.70;;;;;;5054924;28;20048;-40
2023/10/02 00:12:11;;;;;;;25.23;11.25;;;19.90;55.80;;;;;;5053697;28;20056;-40
2023/10/02 00:14:38;;;;;;;23.38;11.02;;;19.80;55.70;;;;;;5054534;28;20048;-41
2023/10/02 00:17:07;;;;;;;20.30;9.70;;;19.80;55.80;;;;;;5053704;28;20056;-40
2023/10/02 00:19:37;;;;;;;24.30;11.20;;;19.80;55.80;;;;;;5054212;28;20451;-40
2023/10/02 00:22:07;;;;;;;29.88;11.48;;;19.80;55.80;;;;;;5055345;28;20512;-40
2023/10/02 00:24:37;;;;;;;23.25;11.02;;;19.80;55.90;;;;;;5052720;28;20053;-40
2023/10/02 00:27:05;;;;;;;23.02;11.10;;;19.80;55.90;;;;;;5054162;28;20060;-40
2023/10/02 00:29:33;;;;;;;26.75;12.10;;;19.70;55.90;;;;;;5053536;28;20056;-40
2023/10/02 00:32:00;;;;;;;27.40;11.85;;;19.70;55.90;;;;;;5039070;28;20408;-41
2023/10/02 00:34:35;;;;;;;24.38;11.32;;;19.70;56.00;;;;;;5040060;28;20387;-41
2023/10/02 00:37:12;;;;;;;26.67;11.32;;;19.70;56.00;;;;;;5040928;28;20045;-40
2023/10/02 00:39:41;;;;;;;25.33;10.85;;;19.70;56.00;;;;;;5037793;28;20524;-41
2023/10/02 00:42:25;;;;;;;25.92;11.10;;;19.70;56.10;;;;;;5041223;28;20053;-40
2023/10/02 00:44:54;;;;;;;22.55;10.07;;;19.60;56.10;;;;;;5037849;28;20092;-40
2023/10/02 00:47:45;;;;;;;25.27;10.90;;;19.70;56.10;;;;;;5038061;28;20099;-40
2023/10/02 00:50:19;;;;;;;26.85;11.43;;;19.60;56.10;;;;;;5040207;28;20041;-41
2023/10/02 00:53:05;;;;;;;25.35;10.68;;;19.60;56.10;;;;;;5042874;28;20052;-40
2023/10/02 00:55:35;;;;;;;25.90;11.80;;;19.60;56.10;;;;;;5042127;28;20053;-40
2023/10/02 00:58:05;;;;;;;25.52;12.02;;;19.60;56.10;;;;;;5043836;28;20053;-40
2023/10/02 01:00:36;;;;;;;25.42;11.98;;;19.60;56.10;;;;;;5041538;28;20593;-40
2023/10/02 01:03:05;;;;;;;24.85;11.27;;;19.50;56.20;;;;;;5040119;28;20064;-40
2023/10/02 01:05:47;;;;;;;24.52;10.68;;;19.50;56.20;;;;;;5041055;28;20307;-40
2023/10/02 01:08:24;;;;;;;24.60;11.60;;;19.50;56.30;;;;;;5042437;28;20056;-40
2023/10/02 01:10:57;;;;;;;28.27;11.43;;;19.50;56.30;;;;;;5040384;28;20049;-40
2023/10/02 01:13:35;;;;;;;26.50;11.35;;;19.50;56.40;;;;;;5039940;28;20049;-40
2023/10/02 01:16:04;;;;;;;23.95;11.43;;;19.50;56.40;;;;;;5039699;28;20049;-39
2023/10/02 01:18:33;;;;;;;21.88;11.25;;;19.50;56.40;;;;;;5040150;28;20072;-40
2023/10/02 01:21:01;;;;;;;26.95;11.77;;;19.50;56.50;;;;;;5037732;28;20049;-40
2023/10/02 01:23:32;;;;;;;25.15;11.63;;;19.40;56.50;;;;;;5040956;28;20080;-40
2023/10/02 01:26:01;;;;;;;27.00;10.02;;;19.40;56.50;;;;;;5042266;28;20064;-39
2023/10/02 01:28:32;;;;;;;26.73;10.25;;;19.40;56.50;;;;;;5041905;28;20056;-39
2023/10/02 01:31:31;;;;;;;26.65;12.05;;;19.40;56.50;;;;;;5039449;28;20052;-40
2023/10/02 01:33:47;;;;;;;23.45;10.27;;;19.40;56.60;;;;;;5041451;28;20504;-39
2023/10/02 01:36:14;;;;;;;23.48;11.00;;;19.40;56.50;;;;;;5039588;28;20508;-40
2023/10/02 01:38:44;;;;;;;31.27;12.15;;;19.30;56.50;;;;;;5041366;28;20057;-40
2023/10/02 01:41:14;;;;;;;22.52;10.98;;;19.30;56.50;;;;;;5038972;28;20053;-39
2023/10/02 01:43:45;;;;;;;25.30;11.48;;;19.30;56.60;;;;;;5037100;28;20064;-41
2023/10/02 01:46:17;;;;;;;27.77;11.75;;;19.30;56.60;;;;;;5039672;28;20057;-41
2023/10/02 01:48:48;;;;;;;24.25;11.27;;;19.30;56.70;;;;;;5039398;28;20492;-39
2023/10/02 01:51:20;;;;;;;25.60;11.82;;;19.30;56.70;;;;;;5038609;28;20405;-40
2023/10/02 01:53:49;;;;;;;24.83;11.60;;;19.30;56.70;;;;;;5039071;28;20053;-40
2023/10/02 01:56:19;;;;;;;26.58;11.48;;;19.30;56.70;;;;;;5040688;28;20057;-39
2023/10/02 01:58:48;;;;;;;23.27;10.68;;;19.20;56.70;;;;;;5038721;28;20084;-40
2023/10/02 02:01:20;;;;;;;23.10;10.68;;;19.20;56.70;;;;;;5036106;28;20059;-39
2023/10/02 02:03:49;;;;;;;21.58;10.93;;;19.20;56.70;;;;;;5038677;28;20068;-40
2023/10/02 02:06:20;;;;;;;25.48;11.07;;;19.20;56.80;;;;;;5040212;28;20052;-40
2023/10/02 02:08:53;;;;;;;22.35;10.55;;;19.10;56.80;;;;;;5041108;28;20421;-40
2023/10/02 02:11:23;;;;;;;24.33;11.02;;;19.10;56.80;;;;;;5039160;28;20060;-39
2023/10/02 02:13:51;;;;;;;27.38;11.10;;;19.10;56.90;;;;;;5040472;28;20405;-39
2023/10/02 02:16:25;;;;;;;25.95;11.65;;;19.10;56.90;;;;;;5038071;28;20068;-40
2023/10/02 02:18:54;;;;;;;24.35;10.98;;;19.10;57.00;;;;;;5039935;28;20057;-39
2023/10/02 02:21:25;;;;;;;21.13;10.73;;;19.10;56.90;;;;;;5037809;28;20052;-40
2023/10/02 02:24:03;;;;;;;24.30;11.10;;;19.10;57.00;;;;;;5038749;28;20068;-36
2023/10/02 02:26:33;;;;;;;24.63;10.73;;;19.10;57.00;;;;;;5039796;28;20497;-36
2023/10/02 02:29:01;;;;;;;23.85;10.30;;;19.00;57.00;;;;;;5039505;28;20052;-36
2023/10/02 02:31:31;;;;;;;24.00;10.68;;;19.00;57.00;;;;;;5036585;28;20053;-36
2023/10/02 02:34:01;;;;;;;24.52;10.98;;;19.00;57.10;;;;;;5038652;28;20501;-37
2023/10/02 02:36:34;;;;;;;26.30;11.00;;;19.00;57.10;;;;;;5039197;28;20057;-37
2023/10/02 02:39:17;;;;;;;28.05;12.07;;;19.00;57.10;;;;;;5040338;28;20053;-36
2023/10/02 02:41:48;;;;;;;25.65;11.82;;;19.00;57.20;;;;;;5038944;28;20409;-36
2023/10/02 02:47:07;;;;;;;23.85;10.75;;;19.00;57.30;;;;;;5039420;28;20052;-37
2023/10/02 02:49:48;;;;;;;24.55;10.93;;;18.90;57.70;;;;;;5038243;28;20477;-36
2023/10/02 02:52:17;;;;;;;23.65;10.48;;;18.90;57.30;;;;;;5038448;28;20060;-36
2023/10/02 02:54:47;;;;;;;25.75;11.75;;;18.90;57.30;;;;;;5038745;28;20053;-37
2023/10/02 02:57:25;;;;;;;27.95;11.38;;;18.90;57.30;;;;;;5038267;28;20054;-37
2023/10/02 03:00:24;;;;;;;23.80;11.38;;;18.90;57.40;;;;;;5040089;28;20060;-36
2023/10/02 03:02:46;;;;;;;22.85;10.55;;;18.90;57.40;;;;;;5037901;28;20068;-37
2023/10/02 03:05:14;;;;;;;24.40;11.13;;;18.90;57.40;;;;;;5038428;28;20497;-36
2023/10/02 03:07:42;;;;;;;24.13;10.88;;;18.90;57.40;;;;;;5039369;28;20582;-38
2023/10/02 03:10:11;;;;;;;23.77;11.40;;;18.90;57.50;;;;;;5037672;28;20075;-36
2023/10/02 03:12:44;;;;;;;24.80;10.93;;;18.80;57.50;;;;;;5039142;28;20057;-36
2023/10/02 03:15:14;;;;;;;22.48;10.52;;;18.80;57.50;;;;;;5037722;28;20049;-36
2023/10/02 03:17:42;;;;;;;20.70;10.38;;;18.80;57.50;;;;;;5038263;28;20508;-38
2023/10/02 03:20:22;;;;;;;23.48;10.52;;;18.80;57.50;;;;;;5035225;28;20413;-36
2023/10/02 03:22:53;;;;;;;25.75;11.57;;;18.80;57.60;;;;;;5036806;28;20416;-36
2023/10/02 03:25:28;;;;;;;23.55;11.15;;;18.80;57.60;;;;;;5037811;28;20056;-35
2023/10/02 03:27:58;;;;;;;23.40;10.45;;;18.80;57.60;;;;;;5039319;28;20060;-36
2023/10/02 03:30:38;;;;;;;25.00;10.50;;;18.80;57.60;;;;;;5037613;28;20057;-36
2023/10/02 03:33:17;;;;;;;22.95;11.05;;;18.80;57.60;;;;;;5036221;28;20052;-36
2023/10/02 03:35:56;;;;;;;23.95;11.35;;;18.80;57.60;;;;;;5037455;28;20075;-36
2023/10/02 03:38:29;;;;;;;27.17;11.63;;;18.70;57.60;;;;;;5038559;28;20064;-36
2023/10/02 03:40:58;;;;;;;22.38;10.57;;;18.70;57.60;;;;;;5037975;28;20045;-36
2023/10/02 03:43:42;;;;;;;23.50;10.07;;;18.70;57.60;;;;;;5037193;28;20063;-37
2023/10/02 03:46:22;;;;;;;21.67;10.80;;;18.70;57.70;;;;;;5038911;28;20060;-36
2023/10/02 03:48:58;;;;;;;24.30;11.25;;;18.70;57.70;;;;;;5037561;28;20057;-35
2023/10/02 03:51:36;;;;;;;26.20;11.73;;;18.70;57.60;;;;;;5034529;28;20049;-37
2023/10/02 03:54:18;;;;;;;24.80;11.00;;;18.70;57.70;;;;;;5037399;28;20060;-37
2023/10/02 03:56:47;;;;;;;21.35;10.38;;;18.70;57.70;;;;;;5039158;28;20053;-36
2023/10/02 03:59:18;;;;;;;24.35;11.02;;;18.70;57.80;;;;;;5038462;28;20060;-36
2023/10/02 04:01:47;;;;;;;26.35;11.40;;;18.70;57.80;;;;;;5035681;28;20404;-36
2023/10/02 04:04:21;;;;;;;25.83;11.25;;;18.60;57.80;;;;;;5038342;28;20060;-38
2023/10/02 04:06:53;;;;;;;22.90;10.55;;;18.60;57.80;;;;;;5041053;28;20496;-36
2023/10/02 04:09:25;;;;;;;26.77;11.23;;;18.60;57.80;;;;;;5041848;28;20064;-35
2023/10/02 04:11:54;;;;;;;25.90;11.18;;;18.60;57.80;;;;;;5040177;28;20496;-36
2023/10/02 04:14:32;;;;;;;24.80;11.48;;;18.60;58.40;;;;;;5040243;28;20049;-36
2023/10/02 04:17:09;;;;;;;23.85;10.38;;;18.60;57.90;;;;;;5037682;28;20060;-38
2023/10/02 04:19:40;;;;;;;25.10;11.43;;;18.60;57.90;;;;;;5040678;28;20053;-37
2023/10/02 04:22:15;;;;;;;23.42;11.57;;;18.60;58.00;;;;;;5041005;28;20053;-36
2023/10/02 04:24:51;;;;;;;23.23;10.50;;;18.60;58.00;;;;;;5039799;28;20052;-36
2023/10/02 04:27:22;;;;;;;25.75;11.38;;;18.50;57.90;;;;;;5042755;28;20056;-36
2023/10/02 04:32:32;;;;;;;21.73;10.98;;;18.50;58.00;;;;;;5039946;28;20405;-37
2023/10/02 04:34:59;;;;;;;27.75;11.38;;;18.50;58.00;;;;;;5042103;28;20068;-37
2023/10/02 04:37:31;;;;;;;22.65;10.15;;;18.50;58.10;;;;;;5041784;28;20049;-36
2023/10/02 04:40:14;;;;;;;26.27;11.48;;;18.50;58.10;;;;;;5042279;28;20064;-35
2023/10/02 04:43:15;;;;;;;25.98;10.70;;;18.50;58.20;;;;;;5040458;28;20064;-36
2023/10/02 04:45:44;;;;;;;21.80;10.38;;;18.50;58.20;;;;;;5038776;28;20057;-35
2023/10/02 04:48:11;;;;;;;21.83;10.27;;;18.50;58.20;;;;;;5041835;28;20515;-36
2023/10/02 04:50:45;;;;;;;26.45;11.35;;;18.40;58.10;;;;;;5040777;28;20064;-36
2023/10/02 04:53:23;;;;;;;24.35;11.02;;;18.40;58.20;;;;;;5039190;28;20481;-36
2023/10/02 04:56:07;;;;;;;23.58;11.15;;;18.40;58.20;;;;;;5037755;28;20060;-36
2023/10/02 04:58:39;;;;;;;22.27;10.75;;;18.40;58.20;;;;;;5039523;28;20551;-35
2023/10/02 05:01:24;;;;;;;25.15;10.95;;;18.40;58.20;;;;;;5038850;28;20060;-36
2023/10/02 05:03:52;;;;;;;23.75;10.65;;;18.40;58.20;;;;;;5040629;28;20057;-38
2023/10/02 05:11:52;;;;;;;23.92;10.88;;;18.40;58.20;;;;;;5046217;28;20072;-36
2023/10/02 05:14:26;;;;;;;24.42;11.90;;;18.40;58.20;;;;;;5039146;28;20053;-36
2023/10/02 05:17:16;;;;;;;25.98;11.25;;;18.40;58.70;;;;;;5038422;28;20044;-35
2023/10/02 05:20:01;;;;;;;24.05;10.57;;;18.40;58.20;;;;;;5038161;28;20072;-36
2023/10/02 05:22:30;;;;;;;23.60;10.45;;;18.40;58.10;;;;;;5039017;28;20045;-36
2023/10/02 05:24:58;;;;;;;24.08;10.75;;;18.40;58.10;;;;;;5038117;28;20408;-37
2023/10/02 05:27:30;;;;;;;26.35;11.27;;;18.40;58.10;;;;;;5041291;28;20056;-37
2023/10/02 05:30:01;;;;;;;22.83;11.15;;;18.40;58.20;;;;;;5039481;28;20060;-38
2023/10/02 05:32:35;;;;;;;23.27;10.45;;;18.30;58.20;;;;;;5039765;28;20053;-35
2023/10/02 05:35:17;;;;;;;28.23;11.25;;;18.30;58.20;;;;;;5039945;28;20057;-36
2023/10/02 05:37:47;;;;;;;25.02;11.10;;;18.30;58.20;;;;;;5040511;28;20067;-36
2023/10/02 05:40:38;;;;;;;23.48;11.15;;;18.30;58.20;;;;;;5038454;28;20488;-35
2023/10/02 05:43:10;;;;;;;25.20;11.32;;;18.30;58.20;;;;;;5039465;28;20412;-36
2023/10/02 05:45:40;;;;;;;26.63;11.55;;;18.30;58.20;;;;;;5038976;28;20481;-36
2023/10/02 05:48:14;;;;;;;24.63;11.00;;;18.30;58.20;;;;;;5040181;28;20520;-37
2023/10/02 05:50:47;;;;;;;22.83;10.88;;;18.30;58.30;;;;;;5038611;28;20404;-36
2023/10/02 05:53:15;;;;;;;26.70;10.97;;;18.30;58.30;;;;;;5037589;28;20047;-36
2023/10/02 05:56:05;;;;;;;26.30;11.13;;;18.30;58.30;;;;;;5038091;28;20060;-35
2023/10/02 05:58:32;;;;;;;24.40;10.60;;;18.30;58.30;;;;;;5038375;28;20063;-37
2023/10/02 06:01:03;;;;;;;23.70;10.40;;;18.30;58.30;;;;;;5037256;28;20060;-36
2023/10/02 06:03:34;;;;;;;24.60;10.25;;;18.30;58.30;;;;;;5037960;28;20060;-38
2023/10/02 06:06:15;;;;;;;24.25;10.52;;;18.30;58.40;;;;;;5039625;28;20417;-38
2023/10/02 06:08:44;;;;;;;26.17;10.95;;;18.30;58.40;;;;;;5040198;28;20052;-36
2023/10/02 06:13:55;;;;;;;25.35;11.00;;;18.30;58.50;;;;;;5040430;28;20603;-36
2023/10/02 06:16:26;;;;;;;32.67;10.93;;;18.30;58.50;;;;;;5036575;28;20048;-36
2023/10/02 06:19:06;;;;;;;23.38;10.68;;;18.30;58.50;;;;;;5039094;28;20527;-38
2023/10/02 06:21:45;;;;;;;23.58;10.45;;;18.30;58.50;;;;;;5039596;28;20484;-36
2023/10/02 06:24:14;;;;;;;26.23;11.05;;;18.30;58.50;;;;;;5040441;28;20056;-36
2023/10/02 06:26:53;;;;;;;25.42;11.05;;;18.30;58.50;;;;;;5038061;28;20056;-38
2023/10/02 06:29:22;;;;;;;29.52;11.25;;;18.30;58.50;;;;;;5038542;28;20059;-36
2023/10/02 06:31:58;;;;;;;26.33;11.20;;;18.40;58.60;;;;;;5037291;28;20413;-36
2023/10/02 06:34:36;;;;;;;32.33;14.27;;;18.40;58.70;;;;;;5036224;28;20603;-36
2023/10/02 06:37:08;;;;;;;26.85;11.30;;;18.40;58.70;;;;;;5039328;28;20505;-36
2023/10/02 06:39:40;;;;;;;25.73;11.13;;;18.40;58.70;;;;;;5039288;28;20053;-37
2023/10/02 06:42:08;;;;;;;22.58;10.68;;;18.40;58.70;;;;;;5039367;28;20049;-38
2023/10/02 06:44:41;;;;;;;23.48;10.95;;;18.40;58.70;;;;;;5038702;28;20063;-36
2023/10/02 06:47:13;;;;;;;33.00;10.27;;;18.50;58.70;;;;;;5037804;28;20058;-36
2023/10/02 06:49:44;;;;;;;24.20;10.57;;;18.50;58.70;;;;;;5037694;28;20483;-46
2023/10/02 06:52:16;;;;;;;28.17;9.68;;;18.50;58.80;;;;;;5038036;28;20413;-35
2023/10/02 06:54:45;;;;;;;28.75;11.32;;;18.50;58.80;;;;;;5037705;28;20064;-37
2023/10/02 06:57:14;;;;;;;24.42;10.25;;;18.50;58.90;;;;;;5039997;28;20052;-36
2023/10/02 06:59:51;;;;;;;23.15;10.45;;;18.50;58.90;;;;;;5037857;28;20485;-36
2023/10/02 07:02:19;;;;;;;22.45;11.05;;;18.60;58.90;;;;;;5032137;28;20059;-35
2023/10/02 07:04:48;;;;;;;25.55;11.45;;;18.70;59.00;;;;;;5035662;28;20524;-38
2023/10/02 07:07:21;;;;;;;21.75;10.20;;;18.70;59.00;;;;;;5036275;28;20061;-37
2023/10/02 07:09:49;;;;;;;23.95;10.50;;;18.70;59.10;;;;;;5038112;28;20052;-35
2023/10/02 07:12:16;;;;;;;23.40;11.10;;;18.70;59.10;;;;;;5038590;28;20076;-35
2023/10/02 07:14:45;;;;;;;24.27;11.27;;;18.80;59.10;;;;;;5038199;28;20053;-36
2023/10/02 07:17:16;;;;;;;22.05;9.75;;;18.80;59.10;;;;;;5038732;28;20056;-35
2023/10/02 07:19:48;;;;;;;23.77;10.90;;;18.80;59.10;;;;;;5040060;28;20053;-36
2023/10/02 07:22:23;;;;;;;25.17;11.27;;;18.90;59.20;;;;;;5040517;28;20057;-36
2023/10/02 07:24:56;;;;;;;22.67;10.30;;;18.90;59.20;;;;;;5036522;28;20540;-35
2023/10/02 07:27:24;;;;;;;25.98;10.80;;;19.00;59.20;;;;;;5038984;28;20053;-36
2023/10/02 07:29:58;;;;;;;24.88;10.40;;;19.00;59.10;;;;;;5036381;28;20052;-37
2023/10/02 07:32:27;;;;;;;28.10;11.35;;;19.10;59.20;;;;;;5037050;28;20516;-37
2023/10/02 07:35:09;;;;;;;22.63;10.27;;;19.10;59.20;;;;;;5037925;28;20044;-38
2023/10/02 07:37:39;;;;;;;23.80;10.25;;;19.20;59.20;;;;;;5038265;28;20064;-36
2023/10/02 07:40:07;;;;;;;24.73;10.18;;;19.20;59.20;;;;;;5038246;28;20053;-35
2023/10/02 07:42:34;;;;;;;22.67;9.93;;;19.20;59.10;;;;;;5041239;28;20621;-36
2023/10/02 07:45:24;;;;;;;24.08;10.77;;;19.30;59.10;;;;;;5039625;28;20049;-36
2023/10/02 07:48:10;;;;;;;22.45;10.15;;;19.30;59.20;;;;;;5042244;28;20497;-36
2023/10/02 07:50:39;;;;;;;24.90;10.50;;;19.30;59.10;;;;;;5040670;28;20053;-38
2023/10/02 07:53:19;;;;;;;23.05;10.52;;;19.40;59.10;;;;;;5040208;28;20053;-37
2023/10/02 07:55:57;;;;;;;26.20;10.73;;;19.40;59.10;;;;;;5043365;28;20053;-36
2023/10/02 07:58:41;;;;;;;31.42;11.07;;;19.50;59.20;;;;;;5044651;28;20057;-35
2023/10/02 08:01:12;;;;;;;23.97;11.30;;;19.50;59.20;;;;;;5040810;28;20413;-36
2023/10/02 08:03:43;;;;;;;23.63;10.57;;;19.50;59.10;;;;;;5042453;28;20045;-36
2023/10/02 08:06:33;;;;;;;22.23;9.80;;;19.60;59.10;;;;;;5040570;28;20053;-36
2023/10/02 08:11:51;;;;;;;24.50;10.80;;;19.60;59.10;;;;;;5044859;28;20064;-36
2023/10/02 08:16:59;;;;;;;23.98;11.40;;;19.80;59.20;;;;;;5039705;28;20396;-39
2023/10/02 08:19:26;;;;;;;20.85;10.40;;;19.80;59.10;;;;;;5040856;28;20049;-38
2023/10/02 08:21:53;;;;;;;24.38;11.43;;;19.80;59.00;;;;;;5039183;28;20044;-39
2023/10/02 08:24:22;;;;;;;28.42;11.38;;;19.90;59.10;;;;;;5038380;28;20045;-39
2023/10/02 08:26:50;;;;;;;24.20;10.85;;;19.90;59.10;;;;;;5041963;28;20053;-39
2023/10/02 08:29:18;;;;;;;27.67;11.45;;;20.00;59.20;;;;;;5041912;28;20064;-39
2023/10/02 08:31:48;;;;;;;24.67;11.13;;;20.00;59.20;;;;;;5038044;28;20497;-39
2023/10/02 08:34:19;;;;;;;23.80;11.25;;;20.00;59.20;;;;;;5041524;28;20107;-39
2023/10/02 08:36:47;;;;;;;27.85;10.88;;;20.10;59.10;;;;;;5042385;28;20063;-39
2023/10/02 08:39:21;;;;;;;25.83;11.43;;;20.20;59.20;;;;;;5041579;28;20524;-39
2023/10/02 08:41:51;;;;;;;26.00;11.55;;;20.30;59.30;;;;;;5040089;28;20521;-39
2023/10/02 08:44:20;;;;;;;21.45;10.80;;;20.30;59.30;;;;;;5039928;28;20048;-39
2023/10/02 08:46:48;;;;;;;26.42;11.68;;;20.40;59.70;;;;;;5041015;28;20056;-39
2023/10/02 08:49:16;;;;;;;23.13;11.02;;;20.50;59.20;;;;;;5039234;28;20053;-39
2023/10/02 08:51:49;;;;;;;22.92;10.82;;;20.50;59.10;;;;;;5039325;28;20604;-39
2023/10/02 08:54:17;;;;;;;23.20;11.32;;;20.50;58.90;;;;;;5040635;28;20057;-39
2023/10/02 08:56:45;;;;;;;24.73;11.68;;;20.60;58.90;;;;;;5041692;28;20079;-38
2023/10/02 08:59:19;;;;;;;23.60;11.25;;;20.70;58.80;;;;;;5041697;28;20055;-41
2023/10/02 09:01:48;;;;;;;27.10;11.57;;;20.70;58.80;;;;;;5037283;28;20052;-39
2023/10/02 09:04:29;;;;;;;24.23;11.20;;;20.80;58.80;;;;;;5040197;28;20091;-39
2023/10/02 09:07:14;;;;;;;23.80;10.48;;;20.80;58.80;;;;;;5041719;28;20060;-39
2023/10/02 09:09:54;;;;;;;19.52;9.60;;;20.90;58.80;;;;;;5042772;28;20481;-41
2023/10/02 09:12:22;;;;;;;23.88;11.50;;;20.90;58.80;;;;;;5040421;28;20409;-39
2023/10/02 09:14:54;;;;;;;24.80;11.02;;;21.00;58.80;;;;;;5039604;28;20049;-40
2023/10/02 09:17:22;;;;;;;27.08;12.10;;;21.10;58.80;;;;;;5039013;28;20485;-39
2023/10/02 09:20:00;;;;;;;26.10;11.43;;;21.10;58.70;;;;;;5038770;28;20053;-40
2023/10/02 09:22:28;;;;;;;26.35;11.85;;;21.20;58.60;;;;;;5039092;28;21866;-39
2023/10/02 09:25:09;;;;;;;23.08;10.73;;;21.30;58.50;;;;;;5042823;28;20052;-40
2023/10/02 09:27:41;;;;;;;26.35;11.55;;;21.30;58.50;;;;;;5041653;28;20067;-40
2023/10/02 09:30:19;;;;;;;23.83;11.50;;;21.40;58.40;;;;;;5039817;28;20076;-40
2023/10/02 09:32:50;;;;;;;24.80;11.48;;;21.50;58.30;;;;;;5037295;28;20053;-40
2023/10/02 09:35:22;;;;;;;24.38;11.45;;;21.50;58.10;;;;;;5039686;28;20049;-40
2023/10/02 09:37:56;;;;;;;23.35;10.73;;;21.60;57.90;;;;;;5038970;28;20045;-40
2023/10/02 09:40:28;;;;;;;23.83;11.23;;;21.60;58.00;;;;;;5040314;28;20128;-39
2023/10/02 09:43:05;;;;;;;23.35;11.25;;;21.70;57.90;;;;;;5040696;28;20049;-39
2023/10/02 09:45:37;;;;;;;26.25;11.57;;;21.80;57.70;;;;;;5041721;28;20049;-39
2023/10/02 09:48:34;;;;;;;24.60;11.88;;;21.80;57.60;;;;;;5038534;28;20051;-40
2023/10/02 09:50:56;;;;;;;22.80;11.00;;;21.90;57.50;;;;;;5037429;28;20057;-41
2023/10/02 09:53:25;;;;;;;29.15;13.25;;;21.90;57.40;;;;;;5036849;28;20060;-40
2023/10/02 09:56:06;;;;;;;24.88;12.75;;;22.00;57.40;;;;;;5036790;28;20067;-40
2023/10/02 09:58:37;;;;;;;25.88;11.52;;;22.10;57.20;;;;;;5037786;28;20059;-39
2023/10/02 10:01:37;;;;;;;26.45;12.20;;;22.10;57.20;;;;;;5036839;28;20052;-39
2023/10/02 10:07:32;;;;;;;24.20;11.05;;;22.20;57.60;;;;;;5039125;28;20045;-42
2023/10/02 10:10:27;;;;;;;24.77;10.75;;;22.30;56.80;;;;;;5037862;28;20060;-40
2023/10/02 10:12:56;;;;;;;25.45;11.82;;;22.30;56.80;;;;;;5037517;28;20045;-41
2023/10/02 10:15:27;;;;;;;24.05;11.73;;;22.40;56.80;;;;;;5039873;28;20409;-40
2023/10/02 10:17:57;;;;;;;23.75;11.30;;;22.40;56.50;;;;;;5037637;28;20390;-41
2023/10/02 10:20:26;;;;;;;27.85;12.02;;;22.50;56.50;;;;;;5038448;28;20395;-39
2023/10/02 10:22:57;;;;;;;25.23;11.80;;;22.50;56.40;;;;;;5039754;28;20398;-40
2023/10/02 10:25:42;;;;;;;25.20;11.65;;;22.60;56.30;;;;;;5037939;28;20052;-40
2023/10/02 10:28:14;;;;;;;22.65;10.95;;;22.60;56.10;;;;;;5040770;28;20055;-40
2023/10/02 10:30:46;;;;;;;26.80;12.15;;;22.80;56.40;;;;;;5037031;28;20045;-40
2023/10/02 10:33:40;;;;;;;26.42;11.98;;;22.80;56.90;;;;;;5038695;28;20049;-40
2023/10/02 10:36:46;;;;;;;23.63;10.57;;;22.80;56.20;;;;;;5040027;28;20060;-39
2023/10/02 10:40:31;;;;;;;27.10;12.43;;;22.90;56.20;;;;;;5034467;28;20057;-37
2023/10/02 10:42:59;;;;;;;27.47;12.30;;;23.00;55.60;;;;;;5038800;28;20053;-36
2023/10/02 10:45:33;;;;;;;28.67;12.63;;;23.10;55.20;;;;;;5037325;28;20056;-37
2023/10/02 10:47:59;;;;;;;27.50;12.55;;;23.10;55.10;;;;;;5037622;28;20520;-36
2023/10/02 10:50:30;;;;;;;26.77;11.68;;;23.20;55.10;;;;;;5034947;28;20053;-37
2023/10/02 10:55:44;;;;;;;23.75;11.57;;;23.20;55.10;;;;;;5037144;28;20045;-38
2023/10/02 10:58:12;;;;;;;25.90;12.73;;;23.20;54.90;;;;;;5033788;28;20048;-36
2023/10/02 11:00:41;;;;;;;26.67;12.60;;;23.30;54.80;;;;;;5037582;28;20404;-36
2023/10/02 11:03:14;;;;;;;24.13;11.57;;;23.30;54.80;;;;;;5036192;28;20063;-38
2023/10/02 11:05:43;;;;;;;25.48;12.45;;;23.40;54.50;;;;;;5038895;28;20056;-36
2023/10/02 11:08:28;;;;;;;26.65;12.27;;;23.40;54.20;;;;;;5038772;28;20409;-37
2023/10/02 11:11:04;;;;;;;30.50;13.07;;;23.50;53.80;;;;;;5038197;28;20060;-36
2023/10/02 11:13:50;;;;;;;27.42;12.35;;;23.50;53.70;;;;;;5038171;28;20519;-37
2023/10/02 11:16:31;;;;;;;25.23;11.98;;;23.50;53.70;;;;;;5037159;28;20056;-36
2023/10/02 11:19:21;;;;;;;27.30;13.20;;;23.60;53.80;;;;;;5039806;28;20052;-36
2023/10/02 11:22:20;;;;;;;30.50;14.02;;;23.60;53.90;;;;;;5036587;28;20053;-36
2023/10/02 11:25:04;;;;;;;31.38;13.77;;;23.70;54.50;;;;;;5037558;28;20412;-36
2023/10/02 11:27:32;;;;;;;26.65;12.63;;;23.80;53.90;;;;;;5036842;28;20056;-36
2023/10/02 11:30:07;;;;;;;27.83;12.52;;;23.80;53.80;;;;;;5036300;28;20057;-38
2023/10/02 11:32:50;;;;;;;27.05;12.55;;;23.80;53.60;;;;;;5033488;28;20053;-37
2023/10/02 11:35:17;;;;;;;26.48;12.40;;;23.90;53.30;;;;;;5037738;28;20052;-38
2023/10/02 11:37:50;;;;;;;30.48;13.30;;;23.90;53.50;;;;;;5038739;28;20516;-37
2023/10/02 11:40:24;;;;;;;26.88;13.10;;;23.90;53.30;;;;;;5038961;28;20409;-36
2023/10/02 11:42:51;;;;;;;27.85;13.75;;;24.00;53.40;;;;;;5037282;28;20056;-36
2023/10/02 11:45:18;;;;;;;26.42;12.90;;;24.00;53.30;;;;;;5036640;28;20057;-41
2023/10/02 11:47:45;;;;;;;26.92;12.52;;;24.00;53.50;;;;;;5037452;28;20069;-41
2023/10/02 11:50:15;;;;;;;25.10;12.52;;;24.10;53.40;;;;;;5035571;28;20076;-41
2023/10/02 11:52:44;;;;;;;25.38;12.80;;;24.10;53.40;;;;;;5038099;28;20057;-40
2023/10/02 11:55:15;;;;;;;24.92;12.48;;;24.10;53.50;;;;;;5039687;28;20049;-41
2023/10/02 11:57:42;;;;;;;24.17;11.77;;;24.20;53.30;;;;;;5038918;28;20052;-40
2023/10/02 12:00:12;;;;;;;24.85;11.68;;;24.20;53.30;;;;;;5034852;28;20045;-40
2023/10/02 12:02:39;;;;;;;24.73;11.70;;;24.20;53.30;;;;;;5033461;28;20060;-40
2023/10/02 12:05:08;;;;;;;26.15;12.75;;;24.30;53.10;;;;;;5033776;28;20068;-40
2023/10/02 12:07:35;;;;;;;24.33;12.45;;;24.40;53.10;;;;;;5037114;28;20057;-40
2023/10/02 12:10:03;;;;;;;42.38;14.75;;;24.40;53.10;;;;;;5038152;28;20049;-46
2023/10/02 12:12:31;;;;;;;29.05;13.13;;;24.50;53.30;;;;;;5037093;28;20061;-42
2023/10/02 12:14:59;;;;;;;24.30;11.68;;;24.50;53.10;;;;;;5034532;28;20056;-41
2023/10/02 12:17:26;;;;;;;25.55;12.55;;;24.50;53.30;;;;;;5036534;28;20060;-40
2023/10/02 12:19:53;;;;;;;33.03;12.35;;;24.60;53.40;;;;;;5035880;28;20060;-40
2023/10/02 12:22:21;;;;;;;25.10;13.00;;;24.70;53.60;;;;;;5039036;28;21114;-40
2023/10/02 12:24:48;;;;;;;28.60;13.32;;;24.70;53.40;;;;;;5037932;28;20055;-41
2023/10/02 12:27:17;;;;;;;26.50;12.55;;;24.80;53.40;;;;;;5041077;28;20063;-40
2023/10/02 12:29:47;;;;;;;24.35;12.38;;;24.90;53.10;;;;;;5040025;28;20048;-42
2023/10/02 12:32:18;;;;;;;29.00;12.40;;;24.90;53.30;;;;;;5040437;28;20049;-40
2023/10/02 12:34:45;;;;;;;25.33;12.73;;;25.00;53.20;;;;;;5037983;28;20069;-40
2023/10/02 12:37:17;;;;;;;27.02;13.80;;;25.00;53.00;;;;;;5042370;28;20530;-41
2023/10/02 12:39:44;;;;;;;24.27;12.27;;;25.00;52.80;;;;;;5040818;28;20045;-40
2023/10/02 12:42:12;;;;;;;23.55;12.23;;;25.20;53.20;;;;;;5042984;28;20076;-40
2023/10/02 12:44:40;;;;;;;27.92;13.50;;;25.20;53.10;;;;;;5039041;28;20052;-40
2023/10/02 12:47:09;;;;;;;27.08;13.38;;;25.20;52.90;;;;;;5039783;28;20057;-42
2023/10/02 12:49:38;;;;;;;33.65;13.57;;;25.30;52.70;;;;;;5041157;28;20072;-41
2023/10/02 12:52:06;;;;;;;27.75;13.48;;;25.40;52.50;;;;;;5036972;28;20045;-41
2023/10/02 12:54:33;;;;;;;30.58;14.05;;;25.40;52.60;;;;;;5041590;28;20049;-41
2023/10/02 12:57:00;;;;;;;30.33;14.13;;;25.50;52.30;;;;;;5040964;28;20492;-36
2023/10/02 12:59:27;;;;;;;24.02;12.10;;;25.50;51.90;;;;;;5040450;28;20048;-37
2023/10/02 13:01:55;;;;;;;29.63;13.13;;;25.50;51.70;;;;;;5038747;28;20057;-37
2023/10/02 13:04:24;;;;;;;27.67;13.80;;;25.60;51.50;;;;;;5039682;28;20385;-37
2023/10/02 13:06:51;;;;;;;29.88;14.32;;;25.60;51.20;;;;;;5038353;28;20064;-37
2023/10/02 13:09:19;;;;;;;24.30;12.60;;;25.60;51.00;;;;;;5040337;28;20057;-38
2023/10/02 13:11:47;;;;;;;29.90;14.05;;;25.70;50.90;;;;;;5041007;28;20060;-36
2023/10/02 13:14:16;;;;;;;29.05;13.07;;;25.70;50.80;;;;;;5039316;28;20053;-36
2023/10/02 13:16:45;;;;;;;49.35;14.60;;;25.70;50.50;;;;;;5039365;28;20053;-36
2023/10/02 13:19:12;;;;;;;39.28;15.40;;;25.70;50.40;;;;;;5041813;28;20069;-36
2023/10/02 13:21:42;;;;;;;29.02;12.98;;;25.80;50.60;;;;;;5038618;28;20067;-36
2023/10/02 13:24:14;;;;;;;27.65;13.80;;;25.80;50.40;;;;;;5040660;28;20049;-36